Time;durP1;ratioP1;P1;durP2;ratioP2;P2;SDS_P1;SDS_P2;PMS_P1;PMS_P2;Temp;Humidity;BMP_temperature;BMP_pressure;BME280_temperature;BME280_humidity;BME280_pressure;Samples;Min_cycle;Max_cycle;Signal;HPM_P1;HPM_P2
2022/10/15 00:00:35;;;;;;;14.95;8.00;;;;;;;7.10;71.17;100619.99;1637267;86;21212;-77
2022/10/15 00:03:02;;;;;;;14.40;8.50;;;;;;;7.14;71.07;100614.54;1641186;86;21102;-76
2022/10/15 00:05:30;;;;;;;12.55;8.18;;;;;;;7.21;70.93;100610.00;1616495;87;21570;-76
2022/10/15 00:07:56;;;;;;;14.75;8.38;;;;;;;7.23;70.76;100613.30;1638607;87;21703;-74
2022/10/15 00:10:23;;;;;;;14.05;8.58;;;;;;;7.29;70.68;100615.17;1637238;86;21043;-76
2022/10/15 00:12:51;;;;;;;10.58;8.65;;;;;;;7.32;70.55;100613.41;1657889;86;21015;-77
2022/10/15 00:15:17;;;;;;;11.18;8.03;;;;;;;7.32;70.34;100608.88;1669965;85;21129;-75
2022/10/15 00:17:44;;;;;;;11.40;8.30;;;;;;;7.33;70.23;100611.88;1656835;86;21177;-74
2022/10/15 00:20:13;;;;;;;12.45;8.38;;;;;;;7.32;70.24;100610.22;1592240;90;21037;-74
2022/10/15 00:22:40;;;;;;;14.05;8.03;;;;;;;7.29;70.34;100609.27;1596570;88;21033;-75
2022/10/15 00:25:07;;;;;;;10.70;8.38;;;;;;;7.32;70.33;100604.04;1666521;84;22235;-73
2022/10/15 00:27:36;;;;;;;10.50;7.87;;;;;;;7.33;70.38;100602.50;1670868;85;21062;-77
2022/10/15 00:30:04;;;;;;;10.30;6.85;;;;;;;7.30;70.60;100596.20;1580249;90;21423;-76
2022/10/15 00:32:30;;;;;;;16.00;8.70;;;;;;;7.26;71.05;100598.17;1608819;87;22175;-79
2022/10/15 00:34:58;;;;;;;8.63;7.62;;;;;;;7.20;71.25;100598.98;1568807;91;21064;-77
2022/10/15 00:37:25;;;;;;;13.50;8.68;;;;;;;7.17;71.42;100598.89;1594483;90;21526;-77
2022/10/15 00:39:52;;;;;;;14.45;8.50;;;;;;;7.15;71.45;100600.94;1592728;90;21152;-79
2022/10/15 00:42:18;;;;;;;13.83;10.00;;;;;;;7.14;71.51;100593.14;1593029;88;21792;-83
2022/10/15 00:44:57;;;;;;;12.60;9.75;;;;;;;7.13;71.45;100602.19;1570729;90;21511;-79
2022/10/15 00:47:38;;;;;;;12.75;8.65;;;;;;;7.09;71.45;100596.94;1592729;90;21059;-83
2022/10/15 00:50:15;;;;;;;17.67;10.63;;;;;;;7.07;71.67;100600.32;1592946;90;21078;-78
2022/10/15 00:53:01;;;;;;;15.55;11.70;;;;;;;7.04;71.65;100602.08;1592192;89;21531;-76
2022/10/15 00:55:37;;;;;;;14.70;10.72;;;;;;;7.01;71.69;100600.62;1593254;90;21133;-76
2022/10/15 00:58:07;;;;;;;12.53;9.20;;;;;;;6.98;71.82;100597.85;1577382;90;21156;-77
2022/10/15 01:00:33;;;;;;;14.60;11.05;;;;;;;6.98;72.04;100603.20;1569244;91;21064;-76
2022/10/15 01:03:01;;;;;;;16.65;11.43;;;;;;;7.00;72.18;100602.47;1589591;90;21033;-68
2022/10/15 01:05:29;;;;;;;19.12;11.80;;;;;;;7.04;72.25;100604.75;1595078;89;21153;-67
2022/10/15 01:07:57;;;;;;;16.57;10.95;;;;;;;7.07;72.22;100609.68;1604481;89;21093;-67
2022/10/15 01:10:29;;;;;;;24.52;12.78;;;;;;;7.11;72.21;100598.36;1604291;89;21098;-68
2022/10/15 01:13:08;;;;;;;47.70;21.33;;;;;;;7.15;72.10;100607.63;1594082;89;21065;-65
2022/10/15 01:15:42;;;;;;;166.90;46.10;;;;;;;7.13;71.80;100604.34;1592274;90;21079;-68
2022/10/15 01:18:29;;;;;;;216.20;64.42;;;;;;;7.02;71.73;100599.59;1592325;90;21006;-68
2022/10/15 01:21:24;;;;;;;237.45;71.33;;;;;;;6.90;71.86;100597.23;1592466;90;21876;-66
2022/10/15 01:24:16;;;;;;;;;;;;;;;6.77;72.22;100605.20;1572472;90;21119;-66
2022/10/15 01:27:26;;;;;;;259.57;83.92;;;;;;;6.58;72.59;100605.47;1595106;88;20550;-67
2022/10/15 01:30:20;;;;;;;221.93;68.12;;;;;;;6.39;73.12;100604.38;1568592;91;21029;-66
2022/10/15 01:32:57;;;;;;;284.98;85.47;;;;;;;6.27;73.83;100607.84;1590786;90;21073;-71
2022/10/15 01:35:56;;;;;;;293.35;89.67;;;;;;;6.17;74.24;100602.87;1590572;90;21187;-70
2022/10/15 01:38:40;;;;;;;279.77;95.55;;;;;;;6.13;74.56;100605.63;1594859;90;21121;-72
2022/10/15 01:41:28;;;;;;;270.33;85.45;;;;;;;6.09;74.73;100606.52;1574105;90;21572;-71
2022/10/15 01:44:12;;;;;;;204.85;72.60;;;;;;;6.01;74.86;100605.86;1620022;88;21114;-71
2022/10/15 01:47:03;;;;;;;179.68;60.78;;;;;;;5.94;75.06;100605.84;1607597;87;21101;-72
2022/10/15 01:49:33;;;;;;;149.05;50.12;;;;;;;5.89;75.21;100607.45;1646509;87;21062;-70
2022/10/15 01:52:07;;;;;;;107.55;39.15;;;;;;;5.86;75.37;100613.95;1645846;87;21623;-72
2022/10/15 01:54:34;;;;;;;69.75;28.90;;;;;;;5.84;75.43;100608.02;1621653;87;21079;-73
2022/10/15 01:57:02;;;;;;;53.70;25.50;;;;;;;5.79;75.39;100605.61;1646204;87;21061;-73
2022/10/15 01:59:31;;;;;;;48.65;22.52;;;;;;;5.75;75.53;100609.70;1646388;87;21067;-78
2022/10/15 02:01:57;;;;;;;44.48;20.60;;;;;;;5.68;75.66;100613.14;1645486;87;21152;-76
2022/10/15 02:04:28;;;;;;;45.25;21.48;;;;;;;5.66;75.81;100613.00;1646136;87;21066;-73
2022/10/15 02:07:08;;;;;;;34.98;19.50;;;;;;;5.64;75.91;100617.73;1623642;87;21118;-74
2022/10/15 02:10:18;;;;;;;32.08;16.62;;;;;;;5.62;75.99;100622.42;1645597;87;21583;-72
2022/10/15 02:13:22;;;;;;;39.63;20.12;;;;;;;5.60;76.17;100619.14;1645526;87;20967;-70
2022/10/15 02:16:07;;;;;;;39.33;13.65;;;;;;;5.60;76.35;100618.64;1646064;87;21043;-71
2022/10/15 02:18:43;;;;;;;20.20;11.50;;;;;;;5.71;76.74;100627.92;1646479;87;20999;-78
2022/10/15 02:21:29;;;;;;;20.08;10.93;;;;;;;5.87;77.36;100629.50;1646265;87;21114;-78
2022/10/15 02:24:13;;;;;;;23.98;12.20;;;;;;;6.00;77.38;100627.73;1635784;87;21018;-78
2022/10/15 02:26:42;;;;;;;31.23;13.00;;;;;;;6.16;77.11;100628.43;1646573;87;21086;-71
2022/10/15 02:29:14;;;;;;;23.00;14.13;;;;;;;6.23;76.70;100630.64;1646440;87;21262;-70
2022/10/15 02:31:42;;;;;;;24.18;12.90;;;;;;;6.30;76.32;100628.80;1623494;87;21106;-74
2022/10/15 02:34:13;;;;;;;27.70;13.50;;;;;;;6.30;75.99;100630.97;1646313;87;21134;-72
2022/10/15 02:36:39;;;;;;;23.75;14.28;;;;;;;6.31;75.80;100639.30;1646907;87;21062;-70
2022/10/15 02:39:09;;;;;;;16.40;12.33;;;;;;;6.28;75.77;100636.21;1647758;87;21010;-71
2022/10/15 02:41:37;;;;;;;16.27;11.25;;;;;;;6.25;75.84;100632.07;1624524;87;21670;-75
2022/10/15 02:44:05;;;;;;;15.88;10.55;;;;;;;6.22;76.12;100631.14;1623456;87;21138;-72
2022/10/15 02:46:32;;;;;;;16.77;9.95;;;;;;;6.25;76.46;100633.41;1640646;87;21111;-73
2022/10/15 02:48:58;;;;;;;14.20;10.50;;;;;;;6.28;76.68;100639.71;1634051;87;20964;-68
2022/10/15 02:51:25;;;;;;;17.17;10.88;;;;;;;6.30;76.68;100636.31;1643630;85;21114;-80
2022/10/15 02:53:53;;;;;;;22.80;11.15;;;;;;;6.35;76.53;100637.05;1617577;88;21312;-76
2022/10/15 02:56:19;;;;;;;16.73;11.10;;;;;;;6.37;76.25;100646.53;1645493;87;20987;-76
2022/10/15 02:58:46;;;;;;;20.12;10.48;;;;;;;6.43;76.18;100647.05;1601255;87;21083;-73
2022/10/15 03:01:13;;;;;;;12.63;9.28;;;;;;;6.49;76.07;100634.73;1648368;86;21003;-73
2022/10/15 03:03:40;;;;;;;12.82;9.18;;;;;;;6.52;76.11;100632.48;1601369;88;20998;-73
2022/10/15 03:06:07;;;;;;;14.53;9.98;;;;;;;6.59;75.99;100632.52;1650524;85;21119;-76
2022/10/15 03:08:34;;;;;;;11.25;9.13;;;;;;;6.63;75.84;100633.76;1667454;85;21556;-77
2022/10/15 03:11:04;;;;;;;15.93;9.05;;;;;;;6.66;75.62;100633.37;1669415;85;21530;-76
2022/10/15 03:13:35;;;;;;;26.02;13.40;;;;;;;6.66;75.52;100630.70;1634500;85;21291;-76
2022/10/15 03:16:06;;;;;;;15.50;11.18;;;;;;;6.67;75.23;100636.84;1617594;87;21003;-76
2022/10/15 03:18:33;;;;;;;16.52;11.00;;;;;;;6.62;75.12;100633.98;1645006;87;22338;-76
2022/10/15 03:21:01;;;;;;;18.30;11.57;;;;;;;6.54;75.21;100624.27;1645110;87;21039;-75
2022/10/15 03:23:29;;;;;;;24.00;12.90;;;;;;;6.52;75.19;100627.67;1617417;87;21122;-76
2022/10/15 03:25:57;;;;;;;19.87;11.90;;;;;;;6.47;75.20;100625.61;1644208;85;21079;-76
2022/10/15 03:28:25;;;;;;;21.57;11.20;;;;;;;6.46;75.30;100628.47;1645082;87;21567;-69
2022/10/15 03:30:51;;;;;;;19.02;11.78;;;;;;;6.46;75.46;100630.63;1623372;86;21156;-76
2022/10/15 03:33:17;;;;;;;21.27;12.20;;;;;;;6.49;75.58;100631.56;1632377;85;21110;-76
2022/10/15 03:35:44;;;;;;;20.68;12.80;;;;;;;6.52;75.66;100627.67;1646796;87;21118;-72
2022/10/15 03:38:12;;;;;;;20.90;13.08;;;;;;;6.55;75.69;100632.09;1596974;88;21106;-76
2022/10/15 03:40:40;;;;;;;17.90;11.38;;;;;;;6.57;75.52;100631.88;1646635;87;21130;-76
2022/10/15 03:43:12;;;;;;;24.67;10.28;;;;;;;6.59;75.45;100627.17;1644390;85;21610;-75
2022/10/15 03:45:38;;;;;;;15.32;10.53;;;;;;;6.63;75.26;100621.73;1618611;88;21627;-76
2022/10/15 03:48:06;;;;;;;14.60;9.98;;;;;;;6.67;75.03;100618.96;1641986;87;21570;-75
2022/10/15 03:50:33;;;;;;;18.52;11.00;;;;;;;6.73;74.82;100625.36;1641472;87;21587;-76
2022/10/15 03:53:04;;;;;;;22.70;13.03;;;;;;;6.74;74.58;100625.67;1663550;85;21107;-75
2022/10/15 03:55:31;;;;;;;18.50;11.00;;;;;;;6.72;74.61;100626.38;1665275;85;21121;-75
2022/10/15 03:57:58;;;;;;;16.40;12.23;;;;;;;6.74;74.68;100627.01;1674175;85;21070;-76
2022/10/15 04:00:25;;;;;;;15.90;11.08;;;;;;;6.73;74.61;100628.03;1665804;85;21058;-74
2022/10/15 04:02:52;;;;;;;14.53;11.12;;;;;;;6.76;74.62;100627.64;1615686;87;21060;-75
2022/10/15 04:05:20;;;;;;;18.00;10.15;;;;;;;6.85;74.19;100625.92;1665614;85;21101;-74
2022/10/15 04:07:49;;;;;;;16.50;9.65;;;;;;;6.93;73.64;100626.23;1612573;87;21751;-73
2022/10/15 04:10:17;;;;;;;14.35;9.30;;;;;;;7.00;73.20;100630.55;1653431;86;21026;-74
2022/10/15 04:12:44;;;;;;;14.33;9.93;;;;;;;7.05;72.80;100622.45;1647986;85;21094;-73
2022/10/15 04:15:13;;;;;;;12.28;8.78;;;;;;;7.09;72.47;100627.70;1643282;85;21079;-77
2022/10/15 04:17:41;;;;;;;13.83;9.95;;;;;;;7.13;71.85;100630.27;1614908;88;21091;-74
2022/10/15 04:20:10;;;;;;;12.30;8.75;;;;;;;7.13;71.70;100636.96;1630172;87;21031;-74
2022/10/15 04:22:37;;;;;;;8.50;7.42;;;;;;;7.14;71.19;100638.61;1616249;87;21039;-74
2022/10/15 04:25:06;;;;;;;10.98;8.35;;;;;;;7.12;70.98;100634.80;1617746;85;20999;-74
2022/10/15 04:27:33;;;;;;;11.63;8.93;;;;;;;7.13;70.89;100631.61;1630774;85;21808;-75
2022/10/15 04:30:09;;;;;;;9.38;8.13;;;;;;;7.10;70.65;100638.17;1615014;88;21023;-73
2022/10/15 04:32:37;;;;;;;12.78;9.58;;;;;;;7.05;70.59;100634.48;1647541;85;21139;-73
2022/10/15 04:35:05;;;;;;;12.33;8.35;;;;;;;7.02;70.69;100637.05;1620499;87;21106;-72
2022/10/15 04:37:36;;;;;;;13.72;8.33;;;;;;;7.03;70.74;100637.36;1595923;88;21103;-72
2022/10/15 04:40:05;;;;;;;9.75;7.60;;;;;;;7.03;70.51;100633.34;1642895;87;21074;-73
2022/10/15 04:42:32;;;;;;;19.15;9.08;;;;;;;7.04;70.30;100634.17;1643624;85;21106;-72
2022/10/15 04:44:58;;;;;;;13.65;8.98;;;;;;;7.03;70.15;100633.86;1642685;85;21242;-72
2022/10/15 04:47:25;;;;;;;10.03;7.22;;;;;;;7.02;70.13;100630.35;1614992;88;21055;-73
2022/10/15 04:49:54;;;;;;;10.82;8.35;;;;;;;6.95;69.69;100626.86;1613331;88;21145;-73
2022/10/15 04:52:26;;;;;;;11.60;8.40;;;;;;;6.81;69.62;100633.21;1618375;87;21002;-72
2022/10/15 04:54:57;;;;;;;10.98;7.40;;;;;;;6.74;70.07;100634.52;1614519;87;21128;-71
2022/10/15 04:57:26;;;;;;;8.13;7.10;;;;;;;6.69;70.34;100629.46;1643057;87;21284;-71
2022/10/15 04:59:53;;;;;;;10.08;7.75;;;;;;;6.62;70.78;100636.11;1642820;87;21070;-76
2022/10/15 05:02:24;;;;;;;17.60;9.00;;;;;;;6.56;71.38;100636.94;1612623;88;21555;-72
2022/10/15 05:04:53;;;;;;;12.88;8.43;;;;;;;6.53;71.89;100635.98;1620130;87;21081;-72
2022/10/15 05:07:20;;;;;;;8.43;7.42;;;;;;;6.53;71.96;100642.16;1643206;87;21055;-72
2022/10/15 05:09:47;;;;;;;10.70;8.73;;;;;;;6.59;71.97;100644.55;1639579;87;21326;-71
2022/10/15 05:12:14;;;;;;;13.53;9.85;;;;;;;6.64;72.03;100643.43;1645637;87;21071;-74
2022/10/15 05:14:42;;;;;;;17.67;9.98;;;;;;;6.67;72.12;100648.88;1628220;85;21533;-73
2022/10/15 05:17:11;;;;;;;12.45;9.13;;;;;;;6.70;72.17;100646.64;1618484;87;21075;-74
2022/10/15 05:19:40;;;;;;;17.57;10.60;;;;;;;6.74;72.09;100645.72;1610329;87;21132;-74
2022/10/15 05:22:08;;;;;;;11.00;9.55;;;;;;;6.80;72.00;100647.09;1642589;85;21261;-74
2022/10/15 05:24:37;;;;;;;11.93;10.58;;;;;;;6.87;71.84;100657.78;1614604;88;21002;-73
2022/10/15 05:27:06;;;;;;;11.75;10.55;;;;;;;6.90;71.62;100652.05;1668699;85;21081;-73
2022/10/15 05:29:34;;;;;;;12.33;11.12;;;;;;;6.88;71.53;100654.92;1674400;85;21075;-75
2022/10/15 05:32:01;;;;;;;12.60;10.60;;;;;;;6.88;71.39;100655.42;1673878;85;22330;-73
2022/10/15 05:34:30;;;;;;;14.55;9.93;;;;;;;6.84;71.40;100659.53;1649745;85;21177;-75
2022/10/15 05:37:06;;;;;;;11.93;10.78;;;;;;;6.83;71.56;100657.87;1615131;88;21072;-74
2022/10/15 05:39:33;;;;;;;16.62;12.43;;;;;;;6.80;71.67;100670.33;1642922;87;21138;-73
2022/10/15 05:42:00;;;;;;;20.80;15.65;;;;;;;6.79;71.80;100664.66;1644532;85;21082;-74
2022/10/15 05:44:38;;;;;;;18.35;13.78;;;;;;;6.79;71.76;100665.48;1615712;87;21556;-74
2022/10/15 05:47:10;;;;;;;17.65;14.05;;;;;;;6.80;71.75;100663.64;1616386;88;22098;-73
2022/10/15 05:49:34;;;;;;;18.02;14.28;;;;;;;6.81;71.84;100673.31;1618418;88;20952;-73
2022/10/15 05:52:03;;;;;;;18.85;12.70;;;;;;;6.80;71.81;100671.16;1618664;87;21100;-72
2022/10/15 05:54:34;;;;;;;19.55;13.40;;;;;;;6.82;71.84;100675.77;1617858;88;21606;-75
2022/10/15 05:57:01;;;;;;;17.02;14.13;;;;;;;6.84;71.74;100666.22;1630707;88;21080;-75
2022/10/15 05:59:27;;;;;;;22.95;14.75;;;;;;;6.85;71.79;100667.36;1630466;88;21126;-72
2022/10/15 06:01:56;;;;;;;17.52;13.28;;;;;;;6.86;71.77;100670.83;1631664;87;21365;-72
2022/10/15 06:04:22;;;;;;;13.68;12.23;;;;;;;6.87;71.72;100671.16;1630593;88;21139;-75
2022/10/15 06:06:48;;;;;;;15.50;11.93;;;;;;;6.87;71.53;100669.30;1630819;88;21024;-73
2022/10/15 06:09:16;;;;;;;12.50;11.33;;;;;;;6.90;71.42;100674.27;1636882;87;21077;-72
2022/10/15 06:11:42;;;;;;;18.55;12.90;;;;;;;6.90;71.20;100678.28;1636302;87;21367;-75
2022/10/15 06:14:09;;;;;;;13.13;11.93;;;;;;;6.91;71.14;100677.73;1630414;87;21139;-74
2022/10/15 06:16:39;;;;;;;15.13;12.75;;;;;;;6.92;71.06;100677.55;1630706;88;21084;-75
2022/10/15 06:19:05;;;;;;;13.08;11.55;;;;;;;6.97;70.91;100679.11;1630841;88;21088;-73
2022/10/15 06:21:32;;;;;;;12.35;10.43;;;;;;;6.97;70.66;100681.78;1631558;87;21035;-75
2022/10/15 06:23:59;;;;;;;14.30;11.05;;;;;;;6.96;70.65;100683.31;1630723;88;21313;-73
2022/10/15 06:26:26;;;;;;;13.10;11.18;;;;;;;6.95;70.62;100680.34;1630529;88;21104;-72
2022/10/15 06:28:52;;;;;;;11.57;9.45;;;;;;;7.00;70.51;100692.61;1630589;88;21085;-75
2022/10/15 06:31:20;;;;;;;13.48;10.10;;;;;;;7.01;70.50;100687.03;1631989;87;21533;-74
2022/10/15 06:33:48;;;;;;;13.40;9.75;;;;;;;7.05;70.56;100689.32;1591026;90;21132;-74
2022/10/15 06:36:16;;;;;;;10.60;8.75;;;;;;;7.07;70.62;100688.08;1590979;88;21176;-74
2022/10/15 06:38:43;;;;;;;10.03;8.50;;;;;;;7.12;70.55;100685.63;1590958;90;20967;-73
2022/10/15 06:41:10;;;;;;;9.65;8.18;;;;;;;7.19;70.38;100700.36;1593564;88;21073;-73
2022/10/15 06:43:36;;;;;;;8.53;6.90;;;;;;;7.25;70.29;100696.84;1591097;90;21079;-74
2022/10/15 06:46:03;;;;;;;9.33;7.90;;;;;;;7.32;70.14;100696.36;1591898;89;21143;-74
2022/10/15 06:48:31;;;;;;;10.38;7.22;;;;;;;7.38;69.87;100699.57;1600040;88;21074;-74
2022/10/15 06:50:59;;;;;;;15.28;11.63;;;;;;;7.44;69.74;100701.41;1622145;87;21058;-75
2022/10/15 06:53:27;;;;;;;10.98;8.95;;;;;;;7.52;69.65;100701.73;1646486;87;21161;-73
2022/10/15 06:56:01;;;;;;;8.65;7.00;;;;;;;7.58;69.34;100694.23;1627681;87;21670;-75
2022/10/15 06:58:29;;;;;;;14.95;7.37;;;;;;;7.65;69.15;100697.20;1618116;88;21582;-72
2022/10/15 07:01:01;;;;;;;10.25;7.60;;;;;;;7.73;68.78;100698.84;1626546;87;21310;-74
2022/10/15 07:03:29;;;;;;;7.30;6.60;;;;;;;7.79;68.69;100696.69;1646880;87;21031;-72
2022/10/15 07:05:56;;;;;;;8.58;6.85;;;;;;;7.87;68.49;100698.63;1629206;87;21122;-73
2022/10/15 07:08:26;;;;;;;7.37;6.40;;;;;;;7.97;68.30;100700.06;1588139;89;21348;-77
2022/10/15 07:10:52;;;;;;;8.33;5.97;;;;;;;8.05;68.22;100701.20;1640676;86;21177;-73
2022/10/15 07:13:21;;;;;;;6.67;5.97;;;;;;;8.13;67.78;100699.12;1617928;88;22358;-72
2022/10/15 07:15:52;;;;;;;13.85;7.22;;;;;;;8.22;66.78;100705.90;1617343;88;21561;-73
2022/10/15 07:18:17;;;;;;;7.62;6.05;;;;;;;8.31;66.45;100703.84;1617928;87;21055;-74
2022/10/15 07:20:45;;;;;;;10.23;6.58;;;;;;;8.40;66.23;100701.75;1623954;87;21635;-74
2022/10/15 07:23:12;;;;;;;8.65;5.95;;;;;;;8.49;66.06;100705.88;1646492;87;21070;-76
2022/10/15 07:25:38;;;;;;;13.62;7.03;;;;;;;8.55;65.40;100707.17;1623390;87;21612;-74
2022/10/15 07:28:05;;;;;;;8.10;6.65;;;;;;;8.65;65.30;100709.41;1609755;89;21529;-73
2022/10/15 07:30:32;;;;;;;11.75;7.05;;;;;;;8.74;65.24;100708.95;1622838;87;34455;-74
2022/10/15 07:32:58;;;;;;;11.95;7.10;;;;;;;8.83;65.38;100710.88;1646262;87;21567;-73
2022/10/15 07:35:26;;;;;;;9.98;7.83;;;;;;;8.93;65.37;100711.76;1635687;87;21098;-75
2022/10/15 07:37:52;;;;;;;7.87;5.45;;;;;;;9.03;65.52;100709.44;1662847;84;21058;-75
2022/10/15 07:40:21;;;;;;;9.55;7.30;;;;;;;9.12;65.28;100710.31;1641415;85;20972;-74
2022/10/15 07:42:55;;;;;;;13.20;5.97;;;;;;;9.25;65.12;100716.14;1662984;85;21058;-76
2022/10/15 07:45:23;;;;;;;9.35;5.95;;;;;;;9.38;64.81;100715.22;1640863;86;21524;-75
2022/10/15 07:47:50;;;;;;;7.92;6.22;;;;;;;9.48;63.91;100713.70;1667636;84;21622;-77
2022/10/15 07:50:16;;;;;;;7.58;6.10;;;;;;;9.61;63.38;100712.27;1673747;85;21115;-74
2022/10/15 07:52:47;;;;;;;7.78;5.08;;;;;;;9.74;63.36;100713.19;1702800;84;21013;-74
2022/10/15 07:55:13;;;;;;;8.90;5.05;;;;;;;9.83;61.55;100714.03;1678168;84;21063;-74
2022/10/15 07:57:41;;;;;;;9.15;5.35;;;;;;;9.92;60.58;100712.73;1676327;84;21057;-77
2022/10/15 08:00:09;;;;;;;6.72;4.70;;;;;;;10.03;60.27;100723.27;1673677;85;21518;-75
2022/10/15 08:02:39;;;;;;;10.55;6.45;;;;;;;10.13;59.93;100720.90;1648958;85;21089;-73
2022/10/15 08:05:06;;;;;;;5.67;4.20;;;;;;;10.24;59.57;100722.90;1673469;84;21085;-75
2022/10/15 08:07:33;;;;;;;4.55;3.98;;;;;;;10.35;59.09;100724.86;1647670;85;21026;-73
2022/10/15 08:10:01;;;;;;;8.65;3.80;;;;;;;10.45;58.55;100717.07;1652994;84;21108;-74
2022/10/15 08:12:29;;;;;;;3.77;3.40;;;;;;;10.57;57.57;100721.72;1673359;84;21110;-76
2022/10/15 08:14:55;;;;;;;4.80;3.47;;;;;;;10.68;57.55;100720.97;1676149;85;21684;-74
2022/10/15 08:17:23;;;;;;;4.35;3.08;;;;;;;10.78;56.86;100722.09;1676637;84;20940;-77
2022/10/15 08:19:50;;;;;;;5.10;3.40;;;;;;;10.89;55.32;100719.14;1683549;84;20939;-77
2022/10/15 08:22:17;;;;;;;4.30;3.58;;;;;;;10.97;54.48;100718.02;1704685;84;21190;-73
2022/10/15 08:24:44;;;;;;;3.58;3.02;;;;;;;11.04;54.39;100723.61;1689702;84;21011;-72
2022/10/15 08:27:11;;;;;;;7.95;3.72;;;;;;;11.12;53.78;100724.66;1676109;84;21163;-75
2022/10/15 08:29:39;;;;;;;10.55;3.30;;;;;;;11.22;53.27;100718.16;1673742;84;22263;-76
2022/10/15 08:32:05;;;;;;;7.72;2.83;;;;;;;11.29;52.58;100717.56;1648411;85;20991;-75
2022/10/15 08:34:34;;;;;;;4.62;2.98;;;;;;;11.36;52.71;100719.65;1673709;85;21110;-73
2022/10/15 08:37:02;;;;;;;2.33;2.10;;;;;;;11.43;51.91;100724.92;1673410;84;21114;-75
2022/10/15 08:39:30;;;;;;;2.72;2.50;;;;;;;11.50;52.25;100725.66;1643123;87;21762;-73
2022/10/15 08:42:17;;;;;;;4.55;4.08;;;;;;;11.57;51.65;100722.31;1643472;85;21111;-73
2022/10/15 08:44:56;;;;;;;4.83;3.60;;;;;;;11.63;51.91;100720.58;1591394;90;21035;-73
2022/10/15 08:47:48;;;;;;;5.97;3.27;;;;;;;11.73;51.45;100716.83;1620913;85;21594;-73
2022/10/15 08:50:26;;;;;;;3.77;3.40;;;;;;;11.83;51.16;100722.98;1631877;85;21154;-73
2022/10/15 08:52:52;;;;;;;4.92;2.83;;;;;;;11.90;50.57;100727.20;1610684;87;21257;-72
2022/10/15 08:55:21;;;;;;;7.50;2.55;;;;;;;11.97;50.05;100716.32;1642170;85;21017;-74
2022/10/15 08:58:05;;;;;;;4.55;3.80;;;;;;;12.03;50.21;100710.00;1648896;85;21030;-72
2022/10/15 09:01:01;;;;;;;6.00;3.02;;;;;;;12.14;50.15;100711.85;1642677;85;21066;-72
2022/10/15 09:04:00;;;;;;;7.65;3.08;;;;;;;12.27;49.43;100706.77;1671007;84;21078;-73
2022/10/15 09:06:33;;;;;;;3.75;2.27;;;;;;;12.39;48.60;100711.08;1671199;84;21242;-74
2022/10/15 09:09:23;;;;;;;5.30;2.83;;;;;;;12.48;47.80;100702.91;1681864;84;21539;-70
2022/10/15 09:12:07;;;;;;;3.87;2.70;;;;;;;12.55;47.54;100705.49;1674929;84;21046;-75
2022/10/15 09:14:39;;;;;;;2.08;1.87;;;;;;;12.61;47.58;100701.84;1642600;85;21003;-76
2022/10/15 09:17:24;;;;;;;;;;;;;;;12.62;46.29;100708.34;1651294;85;21126;-74
2022/10/15 09:19:56;;;;;;;3.35;2.72;;;;;;;12.59;46.63;100708.82;1675019;84;22000;-75
2022/10/15 09:22:26;;;;;;;4.85;2.80;;;;;;;12.59;46.91;100714.75;1676291;84;21011;-75
2022/10/15 09:24:53;;;;;;;5.80;2.85;;;;;;;12.60;46.71;100703.72;1685458;84;21145;-75
2022/10/15 09:27:33;;;;;;;4.15;3.30;;;;;;;12.66;46.87;100711.41;1680576;84;20970;-75
2022/10/15 09:30:27;;;;;;;5.17;2.60;;;;;;;12.74;47.33;100708.32;1669147;84;21571;-74
2022/10/15 09:33:23;;;;;;;3.85;2.50;;;;;;;12.85;46.37;100714.22;1685695;84;22006;-74
2022/10/15 09:35:57;;;;;;;5.30;2.60;;;;;;;12.92;46.16;100705.97;1691951;84;21500;-74
2022/10/15 09:38:56;;;;;;;5.30;3.25;;;;;;;13.00;46.17;100705.05;1664242;84;21325;-74
2022/10/15 09:41:52;;;;;;;2.40;2.12;;;;;;;13.10;46.08;100706.59;1646555;84;21018;-72
2022/10/15 09:44:21;;;;;;;6.22;3.40;;;;;;;13.24;45.90;100703.62;1644792;85;21126;-75
2022/10/15 09:46:49;;;;;;;3.83;2.55;;;;;;;13.30;45.38;100698.08;1627063;87;21497;-73
2022/10/15 09:49:22;;;;;;;2.62;2.10;;;;;;;13.36;45.21;100691.71;1662079;85;20975;-73
2022/10/15 09:52:28;;;;;;;9.80;5.25;;;;;;;13.39;44.74;100689.86;1656502;84;21071;-77
2022/10/15 09:55:30;;;;;;;6.80;4.03;;;;;;;13.42;45.01;100701.55;1630703;86;21061;-75
2022/10/15 09:58:00;;;;;;;4.35;3.40;;;;;;;13.50;44.73;100694.92;1660837;84;21098;-76
2022/10/15 10:00:51;;;;;;;6.78;3.25;;;;;;;13.57;44.71;100699.64;1635881;87;21845;-74
2022/10/15 10:03:17;;;;;;;4.85;2.77;;;;;;;13.65;44.41;100707.34;1654206;86;21079;-74
2022/10/15 10:05:45;;;;;;;2.17;1.98;;;;;;;13.71;43.88;100698.26;1657418;86;21060;-74
2022/10/15 10:08:23;;;;;;;4.15;2.10;;;;;;;13.76;44.04;100701.58;1656539;86;21618;-76
2022/10/15 10:10:58;;;;;;;5.87;2.33;;;;;;;13.80;43.39;100698.13;1650764;84;21055;-77
2022/10/15 10:13:30;;;;;;;4.35;3.12;;;;;;;13.75;43.29;100683.17;1661815;84;21074;-72
2022/10/15 10:16:04;;;;;;;3.27;2.72;;;;;;;13.74;43.71;100689.64;1658900;86;21009;-73
2022/10/15 10:18:33;;;;;;;3.12;2.33;;;;;;;13.80;43.71;100688.67;1656815;86;20998;-74
2022/10/15 10:21:04;;;;;;;2.60;2.35;;;;;;;13.85;44.06;100694.16;1656779;86;21591;-73
2022/10/15 10:23:38;;;;;;;7.45;2.02;;;;;;;13.87;43.40;100693.89;1653988;86;21139;-76
2022/10/15 10:26:06;;;;;;;6.50;2.58;;;;;;;13.92;43.58;100689.91;1660861;84;21303;-76
2022/10/15 10:28:56;;;;;;;3.77;2.50;;;;;;;13.98;43.27;100688.93;1666872;84;21665;-74
2022/10/15 10:31:29;;;;;;;6.65;2.40;;;;;;;14.03;43.29;100694.42;1637819;86;21087;-76
2022/10/15 10:33:56;;;;;;;4.10;3.63;;;;;;;14.08;43.48;100691.80;1672623;85;21052;-78
2022/10/15 10:36:29;;;;;;;2.30;2.10;;;;;;;14.18;42.94;100691.12;1582597;89;21372;-80
2022/10/15 10:39:21;;;;;;;2.83;2.47;;;;;;;14.19;42.75;100688.17;1662860;86;21565;-82
2022/10/15 10:42:01;;;;;;;5.70;2.15;;;;;;;14.23;42.93;100685.25;1651053;84;21048;-77
2022/10/15 10:44:33;;;;;;;3.72;2.70;;;;;;;14.32;43.26;100685.10;1657573;84;21115;-77
2022/10/15 10:47:11;;;;;;;4.28;2.10;;;;;;;14.36;42.71;100684.91;1655453;84;21117;-78
2022/10/15 10:49:49;;;;;;;2.08;1.87;;;;;;;14.44;42.77;100682.30;1652358;84;21596;-77
2022/10/15 10:52:36;;;;;;;7.05;2.40;;;;;;;14.54;42.46;100686.48;1657336;84;21255;-78
2022/10/15 10:55:18;;;;;;;11.33;2.47;;;;;;;14.67;42.65;100682.61;1652361;84;21115;-77
2022/10/15 10:57:56;;;;;;;3.72;2.25;;;;;;;14.77;42.13;100688.15;1656238;84;21000;-77
2022/10/15 11:00:40;;;;;;;5.90;2.58;;;;;;;14.81;41.12;100681.97;1657681;84;21548;-79
2022/10/15 11:03:37;;;;;;;8.70;2.17;;;;;;;14.76;41.67;100682.44;1646369;84;21643;-83
2022/10/15 11:06:39;;;;;;;3.95;2.50;;;;;;;14.81;41.92;100683.33;1654157;84;21724;-76
2022/10/15 11:09:24;;;;;;;4.58;2.58;;;;;;;14.80;42.07;100684.92;1643672;84;21052;-78
2022/10/15 11:12:25;;;;;;;14.63;4.25;;;;;;;14.86;42.19;100685.27;1631750;86;21175;-79
2022/10/15 11:15:18;;;;;;;7.05;3.25;;;;;;;14.96;41.55;100685.92;1647964;84;21061;-78
2022/10/15 11:18:05;;;;;;;3.08;2.70;;;;;;;15.05;41.41;100677.62;1656897;84;21144;-77
2022/10/15 11:20:56;;;;;;;6.42;2.50;;;;;;;15.13;40.91;100683.39;1629187;86;21250;-78
2022/10/15 11:23:56;;;;;;;4.80;2.12;;;;;;;15.15;40.45;100670.42;1611168;86;21092;-76
2022/10/15 11:26:56;;;;;;;4.08;2.40;;;;;;;15.10;40.51;100681.20;1536560;90;21137;-73
2022/10/15 11:29:57;;;;;;;4.60;3.58;;;;;;;15.06;40.32;100680.05;1587352;88;21655;-76
2022/10/15 11:32:47;;;;;;;2.75;2.30;;;;;;;15.04;40.58;100672.73;1652522;84;21105;-72
2022/10/15 11:35:40;;;;;;;6.03;2.52;;;;;;;15.04;40.42;100666.49;1662169;84;21182;-73
2022/10/15 11:38:18;;;;;;;6.30;4.03;;;;;;;15.01;40.40;100665.09;1662054;84;21072;-74
2022/10/15 11:40:56;;;;;;;5.10;3.85;;;;;;;14.95;40.70;100668.02;1663603;84;21394;-73
2022/10/15 11:43:59;;;;;;;5.42;3.22;;;;;;;14.95;41.23;100674.27;1660373;86;21506;-73
2022/10/15 11:47:10;;;;;;;5.03;2.62;;;;;;;15.07;40.67;100672.74;1607831;86;21240;-74
2022/10/15 11:50:04;;;;;;;3.08;2.27;;;;;;;15.11;40.12;100673.33;1668369;85;21152;-70
2022/10/15 11:52:50;;;;;;;;;;;;;;;15.10;40.29;100669.55;1680542;84;21097;-78